sensor_id;sensor_type;location;lat;lon;timestamp;P1;durP1;ratioP1;P2;durP2;ratioP2
37339;SDS011;23223;51.006;7.610;2022-10-16T00:00:15;10.13;;;5.35;;
37339;SDS011;23223;51.006;7.610;2022-10-16T00:02:40;16.48;;;5.70;;
37339;SDS011;23223;51.006;7.610;2022-10-16T00:05:09;9.43;;;4.97;;
37339;SDS011;23223;51.006;7.610;2022-10-16T00:07:35;15.40;;;6.07;;
37339;SDS011;23223;51.006;7.610;2022-10-16T00:10:01;11.35;;;5.22;;
37339;SDS011;23223;51.006;7.610;2022-10-16T00:12:28;7.82;;;5.13;;
37339;SDS011;23223;51.006;7.610;2022-10-16T00:14:54;12.52;;;5.05;;
37339;SDS011;23223;51.006;7.610;2022-10-16T00:17:20;12.35;;;5.50;;
37339;SDS011;23223;51.006;7.610;2022-10-16T00:19:46;13.68;;;5.15;;
37339;SDS011;23223;51.006;7.610;2022-10-16T00:22:15;9.02;;;3.80;;
37339;SDS011;23223;51.006;7.610;2022-10-16T00:24:40;6.55;;;4.25;;
37339;SDS011;23223;51.006;7.610;2022-10-16T00:27:06;17.23;;;4.55;;
37339;SDS011;23223;51.006;7.610;2022-10-16T00:29:33;11.70;;;4.50;;
37339;SDS011;23223;51.006;7.610;2022-10-16T00:32:00;15.40;;;5.05;;
37339;SDS011;23223;51.006;7.610;2022-10-16T00:34:25;5.97;;;3.95;;
37339;SDS011;23223;51.006;7.610;2022-10-16T00:36:51;10.82;;;4.25;;
37339;SDS011;23223;51.006;7.610;2022-10-16T00:39:19;14.02;;;4.60;;
37339;SDS011;23223;51.006;7.610;2022-10-16T00:41:46;12.93;;;3.88;;
37339;SDS011;23223;51.006;7.610;2022-10-16T00:47:22;11.10;;;3.38;;
37339;SDS011;23223;51.006;7.610;2022-10-16T00:49:55;11.93;;;3.75;;
37339;SDS011;23223;51.006;7.610;2022-10-16T00:52:50;6.78;;;4.30;;
37339;SDS011;23223;51.006;7.610;2022-10-16T00:55:20;13.07;;;4.63;;
37339;SDS011;23223;51.006;7.610;2022-10-16T00:57:53;9.82;;;4.15;;
37339;SDS011;23223;51.006;7.610;2022-10-16T01:00:21;6.15;;;2.88;;
37339;SDS011;23223;51.006;7.610;2022-10-16T01:02:56;11.02;;;3.75;;
37339;SDS011;23223;51.006;7.610;2022-10-16T01:05:42;9.75;;;3.90;;
37339;SDS011;23223;51.006;7.610;2022-10-16T01:08:18;5.72;;;3.70;;
37339;SDS011;23223;51.006;7.610;2022-10-16T01:11:01;8.20;;;3.45;;
37339;SDS011;23223;51.006;7.610;2022-10-16T01:13:41;13.23;;;3.53;;
37339;SDS011;23223;51.006;7.610;2022-10-16T01:16:15;13.93;;;3.65;;
37339;SDS011;23223;51.006;7.610;2022-10-16T01:19:00;9.45;;;3.08;;
37339;SDS011;23223;51.006;7.610;2022-10-16T01:21:35;16.60;;;3.35;;
37339;SDS011;23223;51.006;7.610;2022-10-16T01:31:50;12.80;;;3.60;;
37339;SDS011;23223;51.006;7.610;2022-10-16T01:34:25;15.82;;;4.15;;
37339;SDS011;23223;51.006;7.610;2022-10-16T01:36:59;7.13;;;2.88;;
37339;SDS011;23223;51.006;7.610;2022-10-16T01:39:33;8.57;;;3.75;;
37339;SDS011;23223;51.006;7.610;2022-10-16T01:42:04;5.80;;;2.33;;
37339;SDS011;23223;51.006;7.610;2022-10-16T01:44:34;5.38;;;2.63;;
37339;SDS011;23223;51.006;7.610;2022-10-16T01:47:01;4.95;;;2.75;;
37339;SDS011;23223;51.006;7.610;2022-10-16T01:49:29;11.93;;;3.30;;
37339;SDS011;23223;51.006;7.610;2022-10-16T01:51:59;14.07;;;3.13;;
37339;SDS011;23223;51.006;7.610;2022-10-16T01:54:29;11.73;;;2.67;;
37339;SDS011;23223;51.006;7.610;2022-10-16T01:56:58;11.32;;;3.03;;
37339;SDS011;23223;51.006;7.610;2022-10-16T01:59:26;8.05;;;2.78;;
37339;SDS011;23223;51.006;7.610;2022-10-16T02:02:04;5.65;;;2.92;;
37339;SDS011;23223;51.006;7.610;2022-10-16T02:07:15;6.93;;;2.30;;
37339;SDS011;23223;51.006;7.610;2022-10-16T02:09:42;9.43;;;2.67;;
37339;SDS011;23223;51.006;7.610;2022-10-16T02:12:10;9.05;;;2.92;;
37339;SDS011;23223;51.006;7.610;2022-10-16T02:14:49;5.45;;;2.55;;
37339;SDS011;23223;51.006;7.610;2022-10-16T02:17:16;4.68;;;2.55;;
37339;SDS011;23223;51.006;7.610;2022-10-16T02:19:43;6.05;;;2.92;;
37339;SDS011;23223;51.006;7.610;2022-10-16T02:22:16;16.58;;;2.85;;
37339;SDS011;23223;51.006;7.610;2022-10-16T02:27:56;10.70;;;2.92;;
37339;SDS011;23223;51.006;7.610;2022-10-16T02:30:49;6.28;;;2.63;;
37339;SDS011;23223;51.006;7.610;2022-10-16T02:33:19;5.35;;;2.08;;
37339;SDS011;23223;51.006;7.610;2022-10-16T02:35:48;10.82;;;3.20;;
37339;SDS011;23223;51.006;7.610;2022-10-16T02:38:18;7.88;;;1.83;;
37339;SDS011;23223;51.006;7.610;2022-10-16T02:40:46;8.88;;;2.20;;
37339;SDS011;23223;51.006;7.610;2022-10-16T02:43:12;8.52;;;2.10;;
37339;SDS011;23223;51.006;7.610;2022-10-16T02:45:38;8.40;;;2.03;;
37339;SDS011;23223;51.006;7.610;2022-10-16T02:48:04;12.35;;;2.70;;
37339;SDS011;23223;51.006;7.610;2022-10-16T02:50:30;12.20;;;2.70;;
37339;SDS011;23223;51.006;7.610;2022-10-16T02:52:55;5.75;;;2.00;;
37339;SDS011;23223;51.006;7.610;2022-10-16T02:55:21;7.97;;;2.53;;
37339;SDS011;23223;51.006;7.610;2022-10-16T02:57:47;12.68;;;2.97;;
37339;SDS011;23223;51.006;7.610;2022-10-16T03:00:13;10.45;;;2.92;;
37339;SDS011;23223;51.006;7.610;2022-10-16T03:02:41;14.27;;;3.08;;
37339;SDS011;23223;51.006;7.610;2022-10-16T03:05:07;5.38;;;2.50;;
37339;SDS011;23223;51.006;7.610;2022-10-16T03:07:34;8.50;;;3.25;;
37339;SDS011;23223;51.006;7.610;2022-10-16T03:09:59;5.47;;;2.00;;
37339;SDS011;23223;51.006;7.610;2022-10-16T03:12:28;7.28;;;2.25;;
37339;SDS011;23223;51.006;7.610;2022-10-16T03:14:54;6.60;;;3.28;;
37339;SDS011;23223;51.006;7.610;2022-10-16T03:17:24;6.20;;;2.10;;
37339;SDS011;23223;51.006;7.610;2022-10-16T03:19:51;8.00;;;2.53;;
37339;SDS011;23223;51.006;7.610;2022-10-16T03:22:17;11.27;;;2.70;;
37339;SDS011;23223;51.006;7.610;2022-10-16T03:24:43;5.63;;;2.22;;
37339;SDS011;23223;51.006;7.610;2022-10-16T03:27:12;12.77;;;2.40;;
37339;SDS011;23223;51.006;7.610;2022-10-16T03:29:44;8.90;;;2.42;;
37339;SDS011;23223;51.006;7.610;2022-10-16T03:32:10;4.78;;;1.83;;
37339;SDS011;23223;51.006;7.610;2022-10-16T03:34:35;4.85;;;2.17;;
37339;SDS011;23223;51.006;7.610;2022-10-16T03:37:01;11.38;;;2.53;;
37339;SDS011;23223;51.006;7.610;2022-10-16T03:39:27;13.73;;;3.05;;
37339;SDS011;23223;51.006;7.610;2022-10-16T03:41:52;3.85;;;1.63;;
37339;SDS011;23223;51.006;7.610;2022-10-16T03:44:18;3.53;;;1.80;;
37339;SDS011;23223;51.006;7.610;2022-10-16T03:46:43;6.00;;;2.20;;
37339;SDS011;23223;51.006;7.610;2022-10-16T03:49:09;7.63;;;2.08;;
37339;SDS011;23223;51.006;7.610;2022-10-16T03:51:34;7.55;;;2.10;;
37339;SDS011;23223;51.006;7.610;2022-10-16T03:54:00;9.93;;;2.35;;
37339;SDS011;23223;51.006;7.610;2022-10-16T03:56:26;2.90;;;2.03;;
37339;SDS011;23223;51.006;7.610;2022-10-16T03:58:53;8.77;;;1.90;;
37339;SDS011;23223;51.006;7.610;2022-10-16T04:01:19;21.75;;;2.40;;
37339;SDS011;23223;51.006;7.610;2022-10-16T04:03:47;10.93;;;2.28;;
37339;SDS011;23223;51.006;7.610;2022-10-16T04:06:13;15.35;;;3.42;;
37339;SDS011;23223;51.006;7.610;2022-10-16T04:08:39;8.18;;;2.13;;
37339;SDS011;23223;51.006;7.610;2022-10-16T04:11:06;2.55;;;1.90;;
37339;SDS011;23223;51.006;7.610;2022-10-16T04:13:32;8.35;;;1.90;;
37339;SDS011;23223;51.006;7.610;2022-10-16T04:15:58;11.55;;;2.63;;
37339;SDS011;23223;51.006;7.610;2022-10-16T04:18:23;5.22;;;1.63;;
37339;SDS011;23223;51.006;7.610;2022-10-16T04:20:52;8.05;;;2.20;;
37339;SDS011;23223;51.006;7.610;2022-10-16T04:23:18;6.85;;;2.50;;
37339;SDS011;23223;51.006;7.610;2022-10-16T04:25:43;7.40;;;2.22;;
37339;SDS011;23223;51.006;7.610;2022-10-16T04:28:09;8.35;;;2.88;;
37339;SDS011;23223;51.006;7.610;2022-10-16T04:30:34;7.47;;;1.73;;
37339;SDS011;23223;51.006;7.610;2022-10-16T04:33:02;3.75;;;1.98;;
37339;SDS011;23223;51.006;7.610;2022-10-16T04:35:27;6.45;;;2.10;;
37339;SDS011;23223;51.006;7.610;2022-10-16T04:37:53;6.10;;;2.25;;
37339;SDS011;23223;51.006;7.610;2022-10-16T04:40:18;2.22;;;1.73;;
37339;SDS011;23223;51.006;7.610;2022-10-16T04:42:44;9.43;;;2.58;;
37339;SDS011;23223;51.006;7.610;2022-10-16T04:45:10;8.75;;;2.50;;
37339;SDS011;23223;51.006;7.610;2022-10-16T04:47:35;9.50;;;2.65;;
37339;SDS011;23223;51.006;7.610;2022-10-16T04:50:01;6.18;;;2.10;;
37339;SDS011;23223;51.006;7.610;2022-10-16T04:52:27;5.32;;;2.47;;
37339;SDS011;23223;51.006;7.610;2022-10-16T04:54:53;7.05;;;2.33;;
37339;SDS011;23223;51.006;7.610;2022-10-16T04:57:19;14.35;;;2.22;;
37339;SDS011;23223;51.006;7.610;2022-10-16T04:59:44;2.53;;;1.80;;
37339;SDS011;23223;51.006;7.610;2022-10-16T05:02:10;5.88;;;1.65;;
37339;SDS011;23223;51.006;7.610;2022-10-16T05:04:35;9.65;;;2.47;;
37339;SDS011;23223;51.006;7.610;2022-10-16T05:07:01;6.00;;;2.95;;
37339;SDS011;23223;51.006;7.610;2022-10-16T05:09:27;5.65;;;2.58;;
37339;SDS011;23223;51.006;7.610;2022-10-16T05:11:52;3.58;;;2.10;;
37339;SDS011;23223;51.006;7.610;2022-10-16T05:14:18;5.97;;;1.88;;
37339;SDS011;23223;51.006;7.610;2022-10-16T05:16:43;5.20;;;2.17;;
37339;SDS011;23223;51.006;7.610;2022-10-16T05:19:09;8.48;;;2.40;;
37339;SDS011;23223;51.006;7.610;2022-10-16T05:21:35;6.20;;;2.03;;
37339;SDS011;23223;51.006;7.610;2022-10-16T05:24:00;8.60;;;2.55;;
37339;SDS011;23223;51.006;7.610;2022-10-16T05:26:26;3.85;;;1.70;;
37339;SDS011;23223;51.006;7.610;2022-10-16T05:28:51;12.00;;;2.70;;
37339;SDS011;23223;51.006;7.610;2022-10-16T05:31:17;1.85;;;1.33;;
37339;SDS011;23223;51.006;7.610;2022-10-16T05:33:42;10.50;;;2.38;;
37339;SDS011;23223;51.006;7.610;2022-10-16T05:36:09;9.27;;;2.13;;
37339;SDS011;23223;51.006;7.610;2022-10-16T05:38:35;10.40;;;2.60;;
37339;SDS011;23223;51.006;7.610;2022-10-16T05:41:02;7.07;;;2.65;;
37339;SDS011;23223;51.006;7.610;2022-10-16T05:43:29;8.23;;;2.42;;
37339;SDS011;23223;51.006;7.610;2022-10-16T05:48:28;5.45;;;2.05;;
37339;SDS011;23223;51.006;7.610;2022-10-16T05:50:58;6.60;;;2.63;;
37339;SDS011;23223;51.006;7.610;2022-10-16T05:53:45;12.90;;;2.42;;
37339;SDS011;23223;51.006;7.610;2022-10-16T05:56:11;7.78;;;2.47;;
37339;SDS011;23223;51.006;7.610;2022-10-16T05:58:38;5.40;;;1.83;;
37339;SDS011;23223;51.006;7.610;2022-10-16T06:01:10;3.25;;;1.35;;
37339;SDS011;23223;51.006;7.610;2022-10-16T06:03:38;6.43;;;2.45;;
37339;SDS011;23223;51.006;7.610;2022-10-16T06:06:11;6.10;;;1.90;;
37339;SDS011;23223;51.006;7.610;2022-10-16T06:08:38;6.20;;;2.47;;
37339;SDS011;23223;51.006;7.610;2022-10-16T06:11:06;8.07;;;2.70;;
37339;SDS011;23223;51.006;7.610;2022-10-16T06:13:33;4.88;;;2.30;;
37339;SDS011;23223;51.006;7.610;2022-10-16T06:15:59;11.38;;;2.97;;
37339;SDS011;23223;51.006;7.610;2022-10-16T06:18:26;9.63;;;2.40;;
37339;SDS011;23223;51.006;7.610;2022-10-16T06:20:53;4.43;;;2.22;;
37339;SDS011;23223;51.006;7.610;2022-10-16T06:23:19;7.78;;;2.20;;
37339;SDS011;23223;51.006;7.610;2022-10-16T06:25:45;9.98;;;2.40;;
37339;SDS011;23223;51.006;7.610;2022-10-16T06:28:10;6.55;;;2.58;;
37339;SDS011;23223;51.006;7.610;2022-10-16T06:30:36;11.65;;;2.22;;
37339;SDS011;23223;51.006;7.610;2022-10-16T06:33:01;7.70;;;3.08;;
37339;SDS011;23223;51.006;7.610;2022-10-16T06:35:27;7.05;;;2.40;;
37339;SDS011;23223;51.006;7.610;2022-10-16T06:37:54;4.88;;;2.80;;
37339;SDS011;23223;51.006;7.610;2022-10-16T06:40:19;6.70;;;1.92;;
37339;SDS011;23223;51.006;7.610;2022-10-16T06:42:45;9.05;;;2.30;;
37339;SDS011;23223;51.006;7.610;2022-10-16T06:45:11;6.03;;;2.30;;
37339;SDS011;23223;51.006;7.610;2022-10-16T06:47:37;4.35;;;2.40;;
37339;SDS011;23223;51.006;7.610;2022-10-16T06:50:03;5.93;;;2.40;;
37339;SDS011;23223;51.006;7.610;2022-10-16T06:52:31;10.98;;;2.65;;
37339;SDS011;23223;51.006;7.610;2022-10-16T06:54:57;9.05;;;2.95;;
37339;SDS011;23223;51.006;7.610;2022-10-16T06:57:23;11.23;;;2.50;;
37339;SDS011;23223;51.006;7.610;2022-10-16T06:59:48;6.10;;;2.55;;
37339;SDS011;23223;51.006;7.610;2022-10-16T07:02:14;4.85;;;2.60;;
37339;SDS011;23223;51.006;7.610;2022-10-16T07:04:39;3.17;;;1.65;;
37339;SDS011;23223;51.006;7.610;2022-10-16T07:07:05;6.93;;;1.80;;
37339;SDS011;23223;51.006;7.610;2022-10-16T07:09:31;3.92;;;2.30;;
37339;SDS011;23223;51.006;7.610;2022-10-16T07:11:56;12.25;;;3.20;;
37339;SDS011;23223;51.006;7.610;2022-10-16T07:14:22;5.85;;;2.47;;
37339;SDS011;23223;51.006;7.610;2022-10-16T07:16:47;9.30;;;1.95;;
37339;SDS011;23223;51.006;7.610;2022-10-16T07:19:14;4.10;;;2.30;;
37339;SDS011;23223;51.006;7.610;2022-10-16T07:21:41;5.70;;;1.65;;
37339;SDS011;23223;51.006;7.610;2022-10-16T07:24:10;2.28;;;1.80;;
37339;SDS011;23223;51.006;7.610;2022-10-16T07:26:39;7.45;;;1.80;;
37339;SDS011;23223;51.006;7.610;2022-10-16T07:29:15;1.75;;;1.58;;
37339;SDS011;23223;51.006;7.610;2022-10-16T07:31:43;3.70;;;1.75;;
37339;SDS011;23223;51.006;7.610;2022-10-16T07:34:09;3.58;;;1.92;;
37339;SDS011;23223;51.006;7.610;2022-10-16T07:36:35;5.22;;;1.80;;
37339;SDS011;23223;51.006;7.610;2022-10-16T07:39:01;4.55;;;1.80;;
37339;SDS011;23223;51.006;7.610;2022-10-16T07:41:27;2.88;;;1.85;;
37339;SDS011;23223;51.006;7.610;2022-10-16T07:43:53;3.60;;;1.60;;
37339;SDS011;23223;51.006;7.610;2022-10-16T07:46:20;6.15;;;2.20;;
37339;SDS011;23223;51.006;7.610;2022-10-16T07:48:47;5.32;;;1.98;;
37339;SDS011;23223;51.006;7.610;2022-10-16T07:51:20;12.43;;;2.08;;
37339;SDS011;23223;51.006;7.610;2022-10-16T07:53:47;4.07;;;2.03;;
37339;SDS011;23223;51.006;7.610;2022-10-16T07:56:13;4.32;;;1.67;;
37339;SDS011;23223;51.006;7.610;2022-10-16T07:58:40;6.55;;;2.38;;
37339;SDS011;23223;51.006;7.610;2022-10-16T08:01:06;2.55;;;1.60;;
37339;SDS011;23223;51.006;7.610;2022-10-16T08:03:34;8.93;;;3.55;;
37339;SDS011;23223;51.006;7.610;2022-10-16T08:06:00;4.00;;;1.70;;
37339;SDS011;23223;51.006;7.610;2022-10-16T08:08:27;2.38;;;1.75;;
37339;SDS011;23223;51.006;7.610;2022-10-16T08:10:53;6.53;;;1.85;;
37339;SDS011;23223;51.006;7.610;2022-10-16T08:13:19;7.13;;;1.30;;
37339;SDS011;23223;51.006;7.610;2022-10-16T08:15:45;8.55;;;1.75;;
37339;SDS011;23223;51.006;7.610;2022-10-16T08:18:11;5.38;;;1.27;;
37339;SDS011;23223;51.006;7.610;2022-10-16T08:20:38;1.13;;;0.98;;
37339;SDS011;23223;51.006;7.610;2022-10-16T08:23:04;2.03;;;1.13;;
37339;SDS011;23223;51.006;7.610;2022-10-16T08:25:31;2.20;;;1.00;;
37339;SDS011;23223;51.006;7.610;2022-10-16T08:28:03;7.25;;;1.05;;
37339;SDS011;23223;51.006;7.610;2022-10-16T08:30:32;1.58;;;0.95;;
37339;SDS011;23223;51.006;7.610;2022-10-16T08:32:59;1.70;;;1.40;;
37339;SDS011;23223;51.006;7.610;2022-10-16T08:35:25;6.20;;;1.20;;
37339;SDS011;23223;51.006;7.610;2022-10-16T08:37:51;1.85;;;0.88;;
37339;SDS011;23223;51.006;7.610;2022-10-16T08:40:19;1.85;;;0.77;;
37339;SDS011;23223;51.006;7.610;2022-10-16T08:48:38;10.02;;;1.33;;
37339;SDS011;23223;51.006;7.610;2022-10-16T08:51:12;4.75;;;0.70;;
37339;SDS011;23223;51.006;7.610;2022-10-16T08:53:53;0.85;;;0.75;;
37339;SDS011;23223;51.006;7.610;2022-10-16T08:56:26;1.33;;;0.63;;
37339;SDS011;23223;51.006;7.610;2022-10-16T08:58:53;0.95;;;0.57;;
37339;SDS011;23223;51.006;7.610;2022-10-16T09:01:21;2.83;;;0.70;;
37339;SDS011;23223;51.006;7.610;2022-10-16T09:07:00;4.05;;;0.60;;
37339;SDS011;23223;51.006;7.610;2022-10-16T09:12:31;1.98;;;0.73;;
37339;SDS011;23223;51.006;7.610;2022-10-16T09:17:56;4.88;;;0.70;;
37339;SDS011;23223;51.006;7.610;2022-10-16T09:23:28;0.93;;;0.60;;
37339;SDS011;23223;51.006;7.610;2022-10-16T09:25:55;2.10;;;0.40;;
37339;SDS011;23223;51.006;7.610;2022-10-16T09:28:23;0.55;;;0.45;;
37339;SDS011;23223;51.006;7.610;2022-10-16T09:30:49;1.33;;;0.47;;
37339;SDS011;23223;51.006;7.610;2022-10-16T09:33:14;1.05;;;0.60;;
37339;SDS011;23223;51.006;7.610;2022-10-16T09:35:43;1.45;;;0.50;;
37339;SDS011;23223;51.006;7.610;2022-10-16T09:38:24;0.85;;;0.50;;
37339;SDS011;23223;51.006;7.610;2022-10-16T09:40:50;3.00;;;0.60;;
37339;SDS011;23223;51.006;7.610;2022-10-16T09:43:19;1.15;;;0.50;;
37339;SDS011;23223;51.006;7.610;2022-10-16T09:46:00;1.73;;;0.60;;
37339;SDS011;23223;51.006;7.610;2022-10-16T09:48:43;1.77;;;0.60;;
37339;SDS011;23223;51.006;7.610;2022-10-16T09:51:21;2.03;;;0.77;;
37339;SDS011;23223;51.006;7.610;2022-10-16T09:53:47;3.22;;;0.60;;
37339;SDS011;23223;51.006;7.610;2022-10-16T09:56:21;3.30;;;0.40;;
37339;SDS011;23223;51.006;7.610;2022-10-16T09:58:58;4.60;;;0.50;;
37339;SDS011;23223;51.006;7.610;2022-10-16T10:01:46;4.38;;;0.60;;
37339;SDS011;23223;51.006;7.610;2022-10-16T10:04:13;6.40;;;0.40;;
37339;SDS011;23223;51.006;7.610;2022-10-16T10:06:44;0.30;;;0.22;;
37339;SDS011;23223;51.006;7.610;2022-10-16T10:11:48;0.68;;;0.38;;
37339;SDS011;23223;51.006;7.610;2022-10-16T10:16:48;0.40;;;0.40;;
37339;SDS011;23223;51.006;7.610;2022-10-16T10:19:18;2.20;;;0.40;;
37339;SDS011;23223;51.006;7.610;2022-10-16T10:21:45;2.60;;;0.60;;
37339;SDS011;23223;51.006;7.610;2022-10-16T10:24:12;1.60;;;0.68;;
37339;SDS011;23223;51.006;7.610;2022-10-16T10:26:50;1.92;;;0.50;;
37339;SDS011;23223;51.006;7.610;2022-10-16T10:32:29;1.63;;;0.35;;
37339;SDS011;23223;51.006;7.610;2022-10-16T10:46:34;2.45;;;0.47;;
37339;SDS011;23223;51.006;7.610;2022-10-16T10:54:41;0.68;;;0.40;;
37339;SDS011;23223;51.006;7.610;2022-10-16T10:57:33;3.65;;;0.50;;
37339;SDS011;23223;51.006;7.610;2022-10-16T11:03:04;4.22;;;0.50;;
37339;SDS011;23223;51.006;7.610;2022-10-16T11:05:43;1.20;;;0.40;;
37339;SDS011;23223;51.006;7.610;2022-10-16T11:14:03;0.77;;;0.43;;
37339;SDS011;23223;51.006;7.610;2022-10-16T11:16:32;1.60;;;0.80;;
37339;SDS011;23223;51.006;7.610;2022-10-16T11:19:10;2.58;;;0.60;;
37339;SDS011;23223;51.006;7.610;2022-10-16T11:21:43;1.90;;;0.57;;
37339;SDS011;23223;51.006;7.610;2022-10-16T11:26:47;0.93;;;0.60;;
37339;SDS011;23223;51.006;7.610;2022-10-16T11:29:17;1.88;;;0.40;;
37339;SDS011;23223;51.006;7.610;2022-10-16T11:31:50;2.53;;;0.63;;
37339;SDS011;23223;51.006;7.610;2022-10-16T11:34:28;1.58;;;0.55;;
37339;SDS011;23223;51.006;7.610;2022-10-16T11:37:20;1.52;;;0.60;;
37339;SDS011;23223;51.006;7.610;2022-10-16T11:39:52;1.70;;;0.63;;
37339;SDS011;23223;51.006;7.610;2022-10-16T11:42:40;0.93;;;0.40;;
37339;SDS011;23223;51.006;7.610;2022-10-16T11:47:52;2.05;;;0.40;;
37339;SDS011;23223;51.006;7.610;2022-10-16T11:55:47;0.75;;;0.32;;
37339;SDS011;23223;51.006;7.610;2022-10-16T12:06:56;4.30;;;0.77;;
37339;SDS011;23223;51.006;7.610;2022-10-16T12:09:31;1.02;;;0.52;;
37339;SDS011;23223;51.006;7.610;2022-10-16T12:11:59;2.45;;;0.57;;
37339;SDS011;23223;51.006;7.610;2022-10-16T12:17:22;2.28;;;0.68;;
37339;SDS011;23223;51.006;7.610;2022-10-16T12:19:57;1.25;;;0.50;;
37339;SDS011;23223;51.006;7.610;2022-10-16T12:22:28;1.50;;;0.52;;
37339;SDS011;23223;51.006;7.610;2022-10-16T12:24:55;2.75;;;0.75;;
37339;SDS011;23223;51.006;7.610;2022-10-16T12:27:27;0.73;;;0.50;;
37339;SDS011;23223;51.006;7.610;2022-10-16T12:29:58;3.25;;;0.50;;
37339;SDS011;23223;51.006;7.610;2022-10-16T12:32:33;2.15;;;0.40;;
37339;SDS011;23223;51.006;7.610;2022-10-16T12:35:05;0.57;;;0.40;;
37339;SDS011;23223;51.006;7.610;2022-10-16T12:37:41;1.10;;;0.63;;
37339;SDS011;23223;51.006;7.610;2022-10-16T12:42:47;2.08;;;0.70;;
37339;SDS011;23223;51.006;7.610;2022-10-16T12:45:22;1.80;;;0.45;;
37339;SDS011;23223;51.006;7.610;2022-10-16T12:47:52;3.20;;;0.50;;
37339;SDS011;23223;51.006;7.610;2022-10-16T12:50:23;1.70;;;0.50;;
37339;SDS011;23223;51.006;7.610;2022-10-16T12:52:51;1.63;;;0.50;;
37339;SDS011;23223;51.006;7.610;2022-10-16T12:55:17;2.25;;;0.45;;
37339;SDS011;23223;51.006;7.610;2022-10-16T13:00:32;3.00;;;0.50;;
37339;SDS011;23223;51.006;7.610;2022-10-16T13:16:24;0.45;;;0.38;;
37339;SDS011;23223;51.006;7.610;2022-10-16T13:24:23;0.30;;;0.20;;
37339;SDS011;23223;51.006;7.610;2022-10-16T13:29:54;0.60;;;0.40;;
37339;SDS011;23223;51.006;7.610;2022-10-16T13:32:49;2.45;;;0.32;;
37339;SDS011;23223;51.006;7.610;2022-10-16T13:35:21;0.55;;;0.50;;
37339;SDS011;23223;51.006;7.610;2022-10-16T13:38:02;1.40;;;0.50;;
37339;SDS011;23223;51.006;7.610;2022-10-16T13:40:55;4.00;;;0.65;;
37339;SDS011;23223;51.006;7.610;2022-10-16T13:43:48;4.30;;;0.77;;
37339;SDS011;23223;51.006;7.610;2022-10-16T13:48:55;2.42;;;0.57;;
37339;SDS011;23223;51.006;7.610;2022-10-16T13:51:29;4.25;;;0.60;;
37339;SDS011;23223;51.006;7.610;2022-10-16T13:53:56;0.30;;;0.30;;
37339;SDS011;23223;51.006;7.610;2022-10-16T13:56:22;0.65;;;0.30;;
37339;SDS011;23223;51.006;7.610;2022-10-16T13:59:07;8.20;;;0.70;;
37339;SDS011;23223;51.006;7.610;2022-10-16T14:01:48;1.75;;;0.65;;
37339;SDS011;23223;51.006;7.610;2022-10-16T14:04:16;2.45;;;0.60;;
37339;SDS011;23223;51.006;7.610;2022-10-16T14:06:43;1.55;;;0.65;;
37339;SDS011;23223;51.006;7.610;2022-10-16T14:11:48;1.40;;;0.63;;
37339;SDS011;23223;51.006;7.610;2022-10-16T14:14:17;5.60;;;1.42;;
37339;SDS011;23223;51.006;7.610;2022-10-16T14:16:44;6.18;;;1.00;;
37339;SDS011;23223;51.006;7.610;2022-10-16T14:19:13;1.63;;;0.60;;
37339;SDS011;23223;51.006;7.610;2022-10-16T14:21:49;3.97;;;0.50;;
37339;SDS011;23223;51.006;7.610;2022-10-16T14:24:34;0.50;;;0.32;;
37339;SDS011;23223;51.006;7.610;2022-10-16T14:27:00;1.60;;;0.60;;
37339;SDS011;23223;51.006;7.610;2022-10-16T14:29:28;0.30;;;0.30;;
37339;SDS011;23223;51.006;7.610;2022-10-16T14:31:58;4.90;;;0.40;;
37339;SDS011;23223;51.006;7.610;2022-10-16T14:34:35;2.42;;;0.50;;
37339;SDS011;23223;51.006;7.610;2022-10-16T14:37:23;1.73;;;0.60;;
37339;SDS011;23223;51.006;7.610;2022-10-16T14:39:51;2.80;;;0.40;;
37339;SDS011;23223;51.006;7.610;2022-10-16T14:42:18;1.33;;;0.50;;
37339;SDS011;23223;51.006;7.610;2022-10-16T14:44:48;3.78;;;1.42;;
37339;SDS011;23223;51.006;7.610;2022-10-16T14:47:18;1.10;;;0.55;;
37339;SDS011;23223;51.006;7.610;2022-10-16T14:49:48;2.50;;;0.90;;
37339;SDS011;23223;51.006;7.610;2022-10-16T14:52:14;1.60;;;0.80;;
37339;SDS011;23223;51.006;7.610;2022-10-16T14:54:40;2.92;;;0.85;;
37339;SDS011;23223;51.006;7.610;2022-10-16T14:57:13;1.02;;;0.60;;
37339;SDS011;23223;51.006;7.610;2022-10-16T14:59:43;3.53;;;0.60;;
37339;SDS011;23223;51.006;7.610;2022-10-16T15:04:45;7.88;;;0.80;;
37339;SDS011;23223;51.006;7.610;2022-10-16T15:07:11;5.13;;;0.60;;
37339;SDS011;23223;51.006;7.610;2022-10-16T15:09:37;0.80;;;0.50;;
37339;SDS011;23223;51.006;7.610;2022-10-16T15:12:02;1.25;;;0.55;;
37339;SDS011;23223;51.006;7.610;2022-10-16T15:14:28;2.30;;;0.55;;
37339;SDS011;23223;51.006;7.610;2022-10-16T15:16:53;3.50;;;0.85;;
37339;SDS011;23223;51.006;7.610;2022-10-16T15:19:19;0.93;;;0.60;;
37339;SDS011;23223;51.006;7.610;2022-10-16T15:21:44;1.10;;;0.50;;
37339;SDS011;23223;51.006;7.610;2022-10-16T15:24:11;3.58;;;0.77;;
37339;SDS011;23223;51.006;7.610;2022-10-16T15:26:38;1.73;;;0.70;;
37339;SDS011;23223;51.006;7.610;2022-10-16T15:29:04;1.98;;;1.50;;
37339;SDS011;23223;51.006;7.610;2022-10-16T15:31:30;3.03;;;1.85;;
37339;SDS011;23223;51.006;7.610;2022-10-16T15:33:56;0.98;;;0.90;;
37339;SDS011;23223;51.006;7.610;2022-10-16T15:36:33;1.95;;;0.80;;
37339;SDS011;23223;51.006;7.610;2022-10-16T15:39:05;4.55;;;1.35;;
37339;SDS011;23223;51.006;7.610;2022-10-16T15:41:37;4.18;;;0.70;;
37339;SDS011;23223;51.006;7.610;2022-10-16T15:44:02;2.60;;;0.85;;
37339;SDS011;23223;51.006;7.610;2022-10-16T15:46:28;7.20;;;1.58;;
37339;SDS011;23223;51.006;7.610;2022-10-16T15:48:56;4.82;;;0.90;;
37339;SDS011;23223;51.006;7.610;2022-10-16T15:51:22;3.75;;;0.95;;
37339;SDS011;23223;51.006;7.610;2022-10-16T15:53:48;2.80;;;1.63;;
37339;SDS011;23223;51.006;7.610;2022-10-16T15:56:15;2.05;;;0.98;;
37339;SDS011;23223;51.006;7.610;2022-10-16T15:58:42;0.73;;;0.73;;
37339;SDS011;23223;51.006;7.610;2022-10-16T16:01:08;4.88;;;1.95;;
37339;SDS011;23223;51.006;7.610;2022-10-16T16:03:35;6.07;;;1.10;;
37339;SDS011;23223;51.006;7.610;2022-10-16T16:06:05;10.20;;;1.58;;
37339;SDS011;23223;51.006;7.610;2022-10-16T16:08:32;4.68;;;1.23;;
37339;SDS011;23223;51.006;7.610;2022-10-16T16:11:05;14.43;;;5.25;;
37339;SDS011;23223;51.006;7.610;2022-10-16T16:13:33;5.47;;;2.40;;
37339;SDS011;23223;51.006;7.610;2022-10-16T16:15:59;5.25;;;2.80;;
37339;SDS011;23223;51.006;7.610;2022-10-16T16:18:25;2.95;;;1.08;;
37339;SDS011;23223;51.006;7.610;2022-10-16T16:20:51;1.80;;;0.60;;
37339;SDS011;23223;51.006;7.610;2022-10-16T16:23:17;3.72;;;0.95;;
37339;SDS011;23223;51.006;7.610;2022-10-16T16:25:44;7.75;;;1.30;;
37339;SDS011;23223;51.006;7.610;2022-10-16T16:28:09;6.47;;;1.08;;
37339;SDS011;23223;51.006;7.610;2022-10-16T16:30:39;6.90;;;0.93;;
37339;SDS011;23223;51.006;7.610;2022-10-16T16:33:05;6.25;;;1.40;;
37339;SDS011;23223;51.006;7.610;2022-10-16T16:35:30;2.60;;;1.20;;
37339;SDS011;23223;51.006;7.610;2022-10-16T16:37:56;3.72;;;1.13;;
37339;SDS011;23223;51.006;7.610;2022-10-16T16:40:21;5.28;;;1.95;;
37339;SDS011;23223;51.006;7.610;2022-10-16T16:42:47;8.77;;;2.80;;
37339;SDS011;23223;51.006;7.610;2022-10-16T16:45:14;9.15;;;2.95;;
37339;SDS011;23223;51.006;7.610;2022-10-16T16:47:39;1.20;;;1.00;;
37339;SDS011;23223;51.006;7.610;2022-10-16T16:50:05;6.18;;;1.80;;
37339;SDS011;23223;51.006;7.610;2022-10-16T16:52:31;4.03;;;2.50;;
37339;SDS011;23223;51.006;7.610;2022-10-16T16:54:58;6.35;;;2.58;;
37339;SDS011;23223;51.006;7.610;2022-10-16T16:57:23;2.38;;;1.30;;
37339;SDS011;23223;51.006;7.610;2022-10-16T16:59:49;12.35;;;2.17;;
37339;SDS011;23223;51.006;7.610;2022-10-16T17:02:15;10.73;;;3.10;;
37339;SDS011;23223;51.006;7.610;2022-10-16T17:04:41;5.97;;;1.48;;